sensor_id;sensor_type;location;lat;lon;timestamp;temperature;humidity
2441;DHT22;1231;53.988;9.470;2022-07-06T00:00:16;15.80;79.20
2441;DHT22;1231;53.988;9.470;2022-07-06T00:02:47;15.70;79.20
2441;DHT22;1231;53.988;9.470;2022-07-06T00:05:17;15.70;79.20
2441;DHT22;1231;53.988;9.470;2022-07-06T00:07:48;15.70;79.20
2441;DHT22;1231;53.988;9.470;2022-07-06T00:10:19;15.70;79.30
2441;DHT22;1231;53.988;9.470;2022-07-06T00:12:49;15.70;79.30
2441;DHT22;1231;53.988;9.470;2022-07-06T00:15:20;15.70;79.40
2441;DHT22;1231;53.988;9.470;2022-07-06T00:17:50;15.70;79.50
2441;DHT22;1231;53.988;9.470;2022-07-06T00:20:21;15.70;79.70
2441;DHT22;1231;53.988;9.470;2022-07-06T00:22:51;15.70;79.90
2441;DHT22;1231;53.988;9.470;2022-07-06T00:25:22;15.70;80.10
2441;DHT22;1231;53.988;9.470;2022-07-06T00:27:53;15.60;80.30
2441;DHT22;1231;53.988;9.470;2022-07-06T00:30:23;15.60;80.40
2441;DHT22;1231;53.988;9.470;2022-07-06T00:32:54;15.60;80.50
2441;DHT22;1231;53.988;9.470;2022-07-06T00:35:25;15.60;80.50
2441;DHT22;1231;53.988;9.470;2022-07-06T00:37:55;15.60;80.60
2441;DHT22;1231;53.988;9.470;2022-07-06T00:40:27;15.60;80.60
2441;DHT22;1231;53.988;9.470;2022-07-06T00:43:00;15.50;80.60
2441;DHT22;1231;53.988;9.470;2022-07-06T00:45:30;15.50;80.80
2441;DHT22;1231;53.988;9.470;2022-07-06T00:48:01;15.50;80.90
2441;DHT22;1231;53.988;9.470;2022-07-06T00:50:33;15.40;81.00
2441;DHT22;1231;53.988;9.470;2022-07-06T00:53:05;15.40;81.10
2441;DHT22;1231;53.988;9.470;2022-07-06T00:55:38;15.40;81.20
2441;DHT22;1231;53.988;9.470;2022-07-06T00:58:11;15.30;81.40
2441;DHT22;1231;53.988;9.470;2022-07-06T01:00:41;15.30;81.50
2441;DHT22;1231;53.988;9.470;2022-07-06T01:03:15;15.30;81.50
2441;DHT22;1231;53.988;9.470;2022-07-06T01:05:45;15.30;81.60
2441;DHT22;1231;53.988;9.470;2022-07-06T01:08:16;15.30;81.70
2441;DHT22;1231;53.988;9.470;2022-07-06T01:10:47;15.30;81.80
2441;DHT22;1231;53.988;9.470;2022-07-06T01:13:17;15.30;81.80
2441;DHT22;1231;53.988;9.470;2022-07-06T01:15:48;15.30;81.80
2441;DHT22;1231;53.988;9.470;2022-07-06T01:18:19;15.20;81.90
2441;DHT22;1231;53.988;9.470;2022-07-06T01:20:50;15.20;81.90
2441;DHT22;1231;53.988;9.470;2022-07-06T01:23:21;15.20;82.00
2441;DHT22;1231;53.988;9.470;2022-07-06T01:25:55;15.20;82.10
2441;DHT22;1231;53.988;9.470;2022-07-06T01:28:25;15.20;82.10
2441;DHT22;1231;53.988;9.470;2022-07-06T01:30:56;15.20;82.20
2441;DHT22;1231;53.988;9.470;2022-07-06T01:33:26;15.20;82.30
2441;DHT22;1231;53.988;9.470;2022-07-06T01:35:57;15.20;82.30
2441;DHT22;1231;53.988;9.470;2022-07-06T01:38:28;15.20;82.40
2441;DHT22;1231;53.988;9.470;2022-07-06T01:40:58;15.20;82.40
2441;DHT22;1231;53.988;9.470;2022-07-06T01:43:29;15.20;82.50
2441;DHT22;1231;53.988;9.470;2022-07-06T01:45:59;15.20;82.60
2441;DHT22;1231;53.988;9.470;2022-07-06T01:48:30;15.20;82.60
2441;DHT22;1231;53.988;9.470;2022-07-06T01:51:00;15.20;82.70
2441;DHT22;1231;53.988;9.470;2022-07-06T01:53:31;15.20;82.70
2441;DHT22;1231;53.988;9.470;2022-07-06T01:56:02;15.20;82.80
2441;DHT22;1231;53.988;9.470;2022-07-06T01:58:32;15.20;82.80
2441;DHT22;1231;53.988;9.470;2022-07-06T02:01:18;15.20;82.90
2441;DHT22;1231;53.988;9.470;2022-07-06T02:03:48;15.20;82.90
2441;DHT22;1231;53.988;9.470;2022-07-06T02:06:19;15.20;83.00
2441;DHT22;1231;53.988;9.470;2022-07-06T02:08:50;15.20;83.20
2441;DHT22;1231;53.988;9.470;2022-07-06T02:11:22;15.20;83.20
2441;DHT22;1231;53.988;9.470;2022-07-06T02:13:52;15.20;83.20
2441;DHT22;1231;53.988;9.470;2022-07-06T02:16:23;15.20;83.20
2441;DHT22;1231;53.988;9.470;2022-07-06T02:18:53;15.20;83.20
2441;DHT22;1231;53.988;9.470;2022-07-06T02:21:24;15.20;83.20
2441;DHT22;1231;53.988;9.470;2022-07-06T02:23:55;15.20;83.40
2441;DHT22;1231;53.988;9.470;2022-07-06T02:26:25;15.20;83.40
2441;DHT22;1231;53.988;9.470;2022-07-06T02:28:56;15.20;83.40
2441;DHT22;1231;53.988;9.470;2022-07-06T02:31:26;15.20;83.40
2441;DHT22;1231;53.988;9.470;2022-07-06T02:33:57;15.20;83.40
2441;DHT22;1231;53.988;9.470;2022-07-06T02:36:28;15.30;83.40
2441;DHT22;1231;53.988;9.470;2022-07-06T02:38:58;15.30;83.40
2441;DHT22;1231;53.988;9.470;2022-07-06T02:41:29;15.30;83.40
2441;DHT22;1231;53.988;9.470;2022-07-06T02:43:59;15.30;83.40
2441;DHT22;1231;53.988;9.470;2022-07-06T02:46:30;15.30;83.20
2441;DHT22;1231;53.988;9.470;2022-07-06T02:49:00;15.30;83.10
2441;DHT22;1231;53.988;9.470;2022-07-06T02:51:31;15.30;83.00
2441;DHT22;1231;53.988;9.470;2022-07-06T02:54:02;15.30;83.00
2441;DHT22;1231;53.988;9.470;2022-07-06T02:56:32;15.30;82.90
2441;DHT22;1231;53.988;9.470;2022-07-06T02:59:03;15.30;82.80
2441;DHT22;1231;53.988;9.470;2022-07-06T03:01:34;15.30;82.80
2441;DHT22;1231;53.988;9.470;2022-07-06T03:04:04;15.30;82.70
2441;DHT22;1231;53.988;9.470;2022-07-06T03:06:35;15.30;82.70
2441;DHT22;1231;53.988;9.470;2022-07-06T03:09:05;15.40;82.60
2441;DHT22;1231;53.988;9.470;2022-07-06T03:11:36;15.40;82.50
2441;DHT22;1231;53.988;9.470;2022-07-06T03:14:07;15.40;82.40
2441;DHT22;1231;53.988;9.470;2022-07-06T03:16:37;15.40;82.40
2441;DHT22;1231;53.988;9.470;2022-07-06T03:19:08;15.40;82.40
2441;DHT22;1231;53.988;9.470;2022-07-06T03:21:39;15.40;82.30
2441;DHT22;1231;53.988;9.470;2022-07-06T03:24:09;15.40;82.30
2441;DHT22;1231;53.988;9.470;2022-07-06T03:26:40;15.50;82.20
2441;DHT22;1231;53.988;9.470;2022-07-06T03:29:10;15.50;82.20
2441;DHT22;1231;53.988;9.470;2022-07-06T03:31:41;15.50;82.20
2441;DHT22;1231;53.988;9.470;2022-07-06T03:34:11;15.50;82.20
2441;DHT22;1231;53.988;9.470;2022-07-06T03:36:42;15.50;82.20
2441;DHT22;1231;53.988;9.470;2022-07-06T03:39:13;15.50;82.20
2441;DHT22;1231;53.988;9.470;2022-07-06T03:41:43;15.50;82.20
2441;DHT22;1231;53.988;9.470;2022-07-06T03:44:14;15.50;82.20
2441;DHT22;1231;53.988;9.470;2022-07-06T03:46:45;15.50;82.20
2441;DHT22;1231;53.988;9.470;2022-07-06T03:49:16;15.50;82.20
2441;DHT22;1231;53.988;9.470;2022-07-06T03:51:46;15.50;82.20
2441;DHT22;1231;53.988;9.470;2022-07-06T03:54:17;15.50;82.20
2441;DHT22;1231;53.988;9.470;2022-07-06T03:56:47;15.50;82.20
2441;DHT22;1231;53.988;9.470;2022-07-06T03:59:18;15.60;82.20
2441;DHT22;1231;53.988;9.470;2022-07-06T04:01:48;15.60;82.20
2441;DHT22;1231;53.988;9.470;2022-07-06T04:04:19;15.60;82.30
2441;DHT22;1231;53.988;9.470;2022-07-06T04:06:50;15.60;82.20
2441;DHT22;1231;53.988;9.470;2022-07-06T04:09:20;15.70;82.30
2441;DHT22;1231;53.988;9.470;2022-07-06T04:11:51;15.70;82.30
2441;DHT22;1231;53.988;9.470;2022-07-06T04:14:21;15.70;82.30
2441;DHT22;1231;53.988;9.470;2022-07-06T04:16:52;15.80;82.10
2441;DHT22;1231;53.988;9.470;2022-07-06T04:19:23;15.80;82.10
2441;DHT22;1231;53.988;9.470;2022-07-06T04:21:53;15.90;82.10
2441;DHT22;1231;53.988;9.470;2022-07-06T04:24:24;15.90;82.10
2441;DHT22;1231;53.988;9.470;2022-07-06T04:26:54;15.90;82.00
2441;DHT22;1231;53.988;9.470;2022-07-06T04:29:25;16.00;82.00
2441;DHT22;1231;53.988;9.470;2022-07-06T04:31:56;16.00;82.00
2441;DHT22;1231;53.988;9.470;2022-07-06T04:34:26;16.10;82.00
2441;DHT22;1231;53.988;9.470;2022-07-06T04:36:57;16.10;81.90
2441;DHT22;1231;53.988;9.470;2022-07-06T04:39:27;16.20;81.80
2441;DHT22;1231;53.988;9.470;2022-07-06T04:42:01;16.20;81.80
2441;DHT22;1231;53.988;9.470;2022-07-06T04:44:31;16.20;81.70
2441;DHT22;1231;53.988;9.470;2022-07-06T04:47:02;16.30;81.70
2441;DHT22;1231;53.988;9.470;2022-07-06T04:49:33;16.30;81.60
2441;DHT22;1231;53.988;9.470;2022-07-06T04:52:04;16.40;81.60
2441;DHT22;1231;53.988;9.470;2022-07-06T04:54:35;16.40;81.50
2441;DHT22;1231;53.988;9.470;2022-07-06T04:57:06;16.50;81.40
2441;DHT22;1231;53.988;9.470;2022-07-06T04:59:36;16.50;81.40
2441;DHT22;1231;53.988;9.470;2022-07-06T05:02:07;16.60;81.30
2441;DHT22;1231;53.988;9.470;2022-07-06T05:04:38;16.60;81.30
2441;DHT22;1231;53.988;9.470;2022-07-06T05:07:08;16.70;81.20
2441;DHT22;1231;53.988;9.470;2022-07-06T05:09:39;16.80;81.10
2441;DHT22;1231;53.988;9.470;2022-07-06T05:12:10;16.80;81.00
2441;DHT22;1231;53.988;9.470;2022-07-06T05:14:40;16.90;80.80
2441;DHT22;1231;53.988;9.470;2022-07-06T05:17:11;16.90;80.60
2441;DHT22;1231;53.988;9.470;2022-07-06T05:19:41;17.00;80.60
2441;DHT22;1231;53.988;9.470;2022-07-06T05:22:12;17.00;80.40
2441;DHT22;1231;53.988;9.470;2022-07-06T05:24:43;17.00;80.40
2441;DHT22;1231;53.988;9.470;2022-07-06T05:27:13;17.00;80.30
2441;DHT22;1231;53.988;9.470;2022-07-06T05:29:44;17.10;80.30
2441;DHT22;1231;53.988;9.470;2022-07-06T05:32:14;17.20;80.30
2441;DHT22;1231;53.988;9.470;2022-07-06T05:34:45;17.30;80.30
2441;DHT22;1231;53.988;9.470;2022-07-06T05:37:16;17.40;80.00
2441;DHT22;1231;53.988;9.470;2022-07-06T05:39:46;17.40;79.80
2441;DHT22;1231;53.988;9.470;2022-07-06T05:42:19;17.50;79.40
2441;DHT22;1231;53.988;9.470;2022-07-06T05:44:50;17.50;79.10
2441;DHT22;1231;53.988;9.470;2022-07-06T05:47:24;17.60;78.60
2441;DHT22;1231;53.988;9.470;2022-07-06T05:50:13;17.50;77.70
2441;DHT22;1231;53.988;9.470;2022-07-06T05:52:55;17.60;77.20
2441;DHT22;1231;53.988;9.470;2022-07-06T05:55:26;17.60;76.70
2441;DHT22;1231;53.988;9.470;2022-07-06T05:57:57;17.70;76.40
2441;DHT22;1231;53.988;9.470;2022-07-06T06:00:28;17.70;75.30
2441;DHT22;1231;53.988;9.470;2022-07-06T06:02:59;17.60;74.40
2441;DHT22;1231;53.988;9.470;2022-07-06T06:05:30;17.60;74.30
2441;DHT22;1231;53.988;9.470;2022-07-06T06:08:01;17.60;73.90
2441;DHT22;1231;53.988;9.470;2022-07-06T06:10:31;17.50;73.50
2441;DHT22;1231;53.988;9.470;2022-07-06T06:13:02;17.50;73.50
2441;DHT22;1231;53.988;9.470;2022-07-06T06:15:33;17.50;73.60
2441;DHT22;1231;53.988;9.470;2022-07-06T06:18:04;17.60;73.60
2441;DHT22;1231;53.988;9.470;2022-07-06T06:20:34;17.60;73.20
2441;DHT22;1231;53.988;9.470;2022-07-06T06:23:05;17.60;73.00
2441;DHT22;1231;53.988;9.470;2022-07-06T06:25:37;17.60;72.90
2441;DHT22;1231;53.988;9.470;2022-07-06T06:28:10;17.70;73.00
2441;DHT22;1231;53.988;9.470;2022-07-06T06:30:40;17.80;72.80
2441;DHT22;1231;53.988;9.470;2022-07-06T06:33:16;18.10;72.20
2441;DHT22;1231;53.988;9.470;2022-07-06T06:35:49;18.20;71.60
2441;DHT22;1231;53.988;9.470;2022-07-06T06:38:21;18.40;70.20
2441;DHT22;1231;53.988;9.470;2022-07-06T06:40:52;18.40;69.50
2441;DHT22;1231;53.988;9.470;2022-07-06T06:43:23;18.50;69.20
2441;DHT22;1231;53.988;9.470;2022-07-06T06:45:54;18.60;68.70
2441;DHT22;1231;53.988;9.470;2022-07-06T06:48:24;18.70;68.30
2441;DHT22;1231;53.988;9.470;2022-07-06T06:50:55;18.80;67.90
2441;DHT22;1231;53.988;9.470;2022-07-06T06:53:26;18.80;67.50
2441;DHT22;1231;53.988;9.470;2022-07-06T06:55:56;19.10;67.60
2441;DHT22;1231;53.988;9.470;2022-07-06T06:58:27;19.30;66.90
2441;DHT22;1231;53.988;9.470;2022-07-06T07:00:58;19.30;66.80
2441;DHT22;1231;53.988;9.470;2022-07-06T07:03:28;19.20;65.90
2441;DHT22;1231;53.988;9.470;2022-07-06T07:05:59;19.10;65.30
2441;DHT22;1231;53.988;9.470;2022-07-06T07:08:29;18.90;65.90
2441;DHT22;1231;53.988;9.470;2022-07-06T07:11:00;18.80;66.50
2441;DHT22;1231;53.988;9.470;2022-07-06T07:13:30;18.80;66.80
2441;DHT22;1231;53.988;9.470;2022-07-06T07:16:01;18.70;67.00
2441;DHT22;1231;53.988;9.470;2022-07-06T07:18:32;18.70;67.60
2441;DHT22;1231;53.988;9.470;2022-07-06T07:21:02;18.60;67.80
2441;DHT22;1231;53.988;9.470;2022-07-06T07:23:33;18.60;68.10
2441;DHT22;1231;53.988;9.470;2022-07-06T07:26:04;18.50;68.30
2441;DHT22;1231;53.988;9.470;2022-07-06T07:28:34;18.40;68.80
2441;DHT22;1231;53.988;9.470;2022-07-06T07:31:05;18.30;69.60
2441;DHT22;1231;53.988;9.470;2022-07-06T07:33:35;18.10;70.10
2441;DHT22;1231;53.988;9.470;2022-07-06T07:36:06;17.80;71.50
2441;DHT22;1231;53.988;9.470;2022-07-06T07:38:37;17.40;73.60
2441;DHT22;1231;53.988;9.470;2022-07-06T07:41:07;17.20;74.60
2441;DHT22;1231;53.988;9.470;2022-07-06T07:43:38;17.00;75.50
2441;DHT22;1231;53.988;9.470;2022-07-06T07:46:09;16.90;76.20
2441;DHT22;1231;53.988;9.470;2022-07-06T07:48:39;16.90;76.70
2441;DHT22;1231;53.988;9.470;2022-07-06T07:51:10;16.80;76.70
2441;DHT22;1231;53.988;9.470;2022-07-06T07:53:41;16.80;77.20
2441;DHT22;1231;53.988;9.470;2022-07-06T07:56:12;16.80;77.60
2441;DHT22;1231;53.988;9.470;2022-07-06T07:58:42;16.90;78.00
2441;DHT22;1231;53.988;9.470;2022-07-06T08:01:13;17.00;77.00
2441;DHT22;1231;53.988;9.470;2022-07-06T08:03:44;17.10;76.80
2441;DHT22;1231;53.988;9.470;2022-07-06T08:06:14;17.20;76.80
2441;DHT22;1231;53.988;9.470;2022-07-06T08:08:45;17.40;76.80
2441;DHT22;1231;53.988;9.470;2022-07-06T08:11:15;17.50;76.50
2441;DHT22;1231;53.988;9.470;2022-07-06T08:13:46;17.70;76.60
2441;DHT22;1231;53.988;9.470;2022-07-06T08:16:17;17.90;76.70
2441;DHT22;1231;53.988;9.470;2022-07-06T08:18:47;18.10;77.10
2441;DHT22;1231;53.988;9.470;2022-07-06T08:21:18;18.40;77.20
2441;DHT22;1231;53.988;9.470;2022-07-06T08:23:48;18.70;77.00
2441;DHT22;1231;53.988;9.470;2022-07-06T08:26:19;18.90;75.90
2441;DHT22;1231;53.988;9.470;2022-07-06T08:28:50;19.00;75.20
2441;DHT22;1231;53.988;9.470;2022-07-06T08:31:20;19.10;74.70
2441;DHT22;1231;53.988;9.470;2022-07-06T08:33:51;19.30;74.20
2441;DHT22;1231;53.988;9.470;2022-07-06T08:36:23;19.40;74.80
2441;DHT22;1231;53.988;9.470;2022-07-06T08:38:54;19.60;74.80
2441;DHT22;1231;53.988;9.470;2022-07-06T08:41:26;19.70;74.10
2441;DHT22;1231;53.988;9.470;2022-07-06T08:43:58;19.70;73.00
2441;DHT22;1231;53.988;9.470;2022-07-06T08:46:30;19.70;72.50
2441;DHT22;1231;53.988;9.470;2022-07-06T08:49:01;19.70;72.30
2441;DHT22;1231;53.988;9.470;2022-07-06T08:51:31;19.70;71.20
2441;DHT22;1231;53.988;9.470;2022-07-06T08:54:03;19.70;71.20
2441;DHT22;1231;53.988;9.470;2022-07-06T08:56:34;19.80;71.60
2441;DHT22;1231;53.988;9.470;2022-07-06T08:59:05;19.80;71.00
2441;DHT22;1231;53.988;9.470;2022-07-06T09:01:39;19.80;70.90
2441;DHT22;1231;53.988;9.470;2022-07-06T09:04:12;19.70;70.60
2441;DHT22;1231;53.988;9.470;2022-07-06T09:06:46;19.70;70.90
2441;DHT22;1231;53.988;9.470;2022-07-06T09:09:22;19.70;71.00
2441;DHT22;1231;53.988;9.470;2022-07-06T09:11:53;19.80;70.20
2441;DHT22;1231;53.988;9.470;2022-07-06T09:14:24;19.80;70.60
2441;DHT22;1231;53.988;9.470;2022-07-06T09:17:03;19.90;70.60
2441;DHT22;1231;53.988;9.470;2022-07-06T09:19:35;20.00;70.70
2441;DHT22;1231;53.988;9.470;2022-07-06T09:22:06;20.10;70.50
2441;DHT22;1231;53.988;9.470;2022-07-06T09:24:41;20.30;69.90
2441;DHT22;1231;53.988;9.470;2022-07-06T09:27:16;20.40;69.10
2441;DHT22;1231;53.988;9.470;2022-07-06T09:29:47;20.50;68.20
2441;DHT22;1231;53.988;9.470;2022-07-06T09:32:20;20.40;67.70
2441;DHT22;1231;53.988;9.470;2022-07-06T09:34:51;20.40;68.10
2441;DHT22;1231;53.988;9.470;2022-07-06T09:37:22;20.50;68.50
2441;DHT22;1231;53.988;9.470;2022-07-06T09:39:56;20.60;68.60
2441;DHT22;1231;53.988;9.470;2022-07-06T09:42:26;20.80;68.50
2441;DHT22;1231;53.988;9.470;2022-07-06T09:44:57;20.90;68.20
2441;DHT22;1231;53.988;9.470;2022-07-06T09:47:28;20.90;67.90
2441;DHT22;1231;53.988;9.470;2022-07-06T09:49:59;21.00;67.70
2441;DHT22;1231;53.988;9.470;2022-07-06T09:52:34;21.20;66.50
2441;DHT22;1231;53.988;9.470;2022-07-06T09:55:23;21.30;66.60
2441;DHT22;1231;53.988;9.470;2022-07-06T09:57:54;21.40;66.70
2441;DHT22;1231;53.988;9.470;2022-07-06T10:00:28;21.60;67.10
2441;DHT22;1231;53.988;9.470;2022-07-06T10:02:59;21.80;65.90
2441;DHT22;1231;53.988;9.470;2022-07-06T10:05:31;21.90;66.10
2441;DHT22;1231;53.988;9.470;2022-07-06T10:08:02;21.80;64.80
2441;DHT22;1231;53.988;9.470;2022-07-06T10:10:38;21.80;64.30
2441;DHT22;1231;53.988;9.470;2022-07-06T10:13:10;21.90;64.50
2441;DHT22;1231;53.988;9.470;2022-07-06T10:15:40;22.00;62.90
2441;DHT22;1231;53.988;9.470;2022-07-06T10:18:11;22.20;62.70
2441;DHT22;1231;53.988;9.470;2022-07-06T10:20:42;22.50;61.70
2441;DHT22;1231;53.988;9.470;2022-07-06T10:23:13;22.40;60.30
2441;DHT22;1231;53.988;9.470;2022-07-06T10:25:44;22.20;60.30
2441;DHT22;1231;53.988;9.470;2022-07-06T10:28:17;22.00;60.40
2441;DHT22;1231;53.988;9.470;2022-07-06T10:30:49;22.20;62.80
2441;DHT22;1231;53.988;9.470;2022-07-06T10:33:20;22.40;60.20
2441;DHT22;1231;53.988;9.470;2022-07-06T10:35:52;22.30;60.10
2441;DHT22;1231;53.988;9.470;2022-07-06T10:38:31;22.20;60.10
2441;DHT22;1231;53.988;9.470;2022-07-06T10:41:07;22.30;60.80
2441;DHT22;1231;53.988;9.470;2022-07-06T10:43:42;22.30;60.20
2441;DHT22;1231;53.988;9.470;2022-07-06T10:46:15;22.40;59.80
2441;DHT22;1231;53.988;9.470;2022-07-06T10:48:47;22.50;59.10
2441;DHT22;1231;53.988;9.470;2022-07-06T10:51:28;22.60;58.30
2441;DHT22;1231;53.988;9.470;2022-07-06T10:54:01;22.70;58.00
2441;DHT22;1231;53.988;9.470;2022-07-06T10:56:39;22.80;56.50
2441;DHT22;1231;53.988;9.470;2022-07-06T10:59:16;22.60;55.50
2441;DHT22;1231;53.988;9.470;2022-07-06T11:02:12;22.50;57.10
2441;DHT22;1231;53.988;9.470;2022-07-06T11:04:48;22.40;57.40
2441;DHT22;1231;53.988;9.470;2022-07-06T11:07:20;22.30;58.70
2441;DHT22;1231;53.988;9.470;2022-07-06T11:09:58;22.30;59.10
2441;DHT22;1231;53.988;9.470;2022-07-06T11:12:29;22.20;57.80
2441;DHT22;1231;53.988;9.470;2022-07-06T11:15:00;22.30;59.30
2441;DHT22;1231;53.988;9.470;2022-07-06T11:17:32;22.50;59.40
2441;DHT22;1231;53.988;9.470;2022-07-06T11:20:11;22.60;58.60
2441;DHT22;1231;53.988;9.470;2022-07-06T11:22:43;22.60;59.80
2441;DHT22;1231;53.988;9.470;2022-07-06T11:25:13;22.50;57.70
2441;DHT22;1231;53.988;9.470;2022-07-06T11:27:46;22.50;57.80
2441;DHT22;1231;53.988;9.470;2022-07-06T11:30:17;22.40;58.20
2441;DHT22;1231;53.988;9.470;2022-07-06T11:32:47;22.40;57.80
2441;DHT22;1231;53.988;9.470;2022-07-06T11:35:21;22.20;57.90
2441;DHT22;1231;53.988;9.470;2022-07-06T11:37:52;22.10;58.80
2441;DHT22;1231;53.988;9.470;2022-07-06T11:40:24;22.30;59.90
2441;DHT22;1231;53.988;9.470;2022-07-06T11:42:54;22.70;58.30
2441;DHT22;1231;53.988;9.470;2022-07-06T11:45:26;22.90;57.70
2441;DHT22;1231;53.988;9.470;2022-07-06T11:48:10;22.90;57.20
2441;DHT22;1231;53.988;9.470;2022-07-06T11:50:42;22.60;57.20
2441;DHT22;1231;53.988;9.470;2022-07-06T11:53:14;22.30;57.80
2441;DHT22;1231;53.988;9.470;2022-07-06T11:55:45;22.10;57.80
2441;DHT22;1231;53.988;9.470;2022-07-06T11:58:22;21.90;58.40
2441;DHT22;1231;53.988;9.470;2022-07-06T12:01:04;21.80;58.30
2441;DHT22;1231;53.988;9.470;2022-07-06T12:03:35;21.80;59.40
2441;DHT22;1231;53.988;9.470;2022-07-06T12:06:13;21.90;59.00
2441;DHT22;1231;53.988;9.470;2022-07-06T12:09:06;22.10;58.70
2441;DHT22;1231;53.988;9.470;2022-07-06T12:11:37;22.20;58.50
2441;DHT22;1231;53.988;9.470;2022-07-06T12:14:18;22.30;57.30
2441;DHT22;1231;53.988;9.470;2022-07-06T12:16:49;22.30;56.30
2441;DHT22;1231;53.988;9.470;2022-07-06T12:19:24;22.40;56.50
2441;DHT22;1231;53.988;9.470;2022-07-06T12:21:54;22.50;57.80
2441;DHT22;1231;53.988;9.470;2022-07-06T12:24:27;22.60;57.10
2441;DHT22;1231;53.988;9.470;2022-07-06T12:27:13;22.70;57.50
2441;DHT22;1231;53.988;9.470;2022-07-06T12:29:44;22.90;56.20
2441;DHT22;1231;53.988;9.470;2022-07-06T12:32:20;23.10;56.00
2441;DHT22;1231;53.988;9.470;2022-07-06T12:35:06;23.30;55.30
2441;DHT22;1231;53.988;9.470;2022-07-06T12:37:37;23.40;55.10
2441;DHT22;1231;53.988;9.470;2022-07-06T12:40:15;23.30;54.40
2441;DHT22;1231;53.988;9.470;2022-07-06T12:42:46;23.10;53.70
2441;DHT22;1231;53.988;9.470;2022-07-06T12:45:18;23.00;53.90
2441;DHT22;1231;53.988;9.470;2022-07-06T12:48:03;23.00;54.70
2441;DHT22;1231;53.988;9.470;2022-07-06T12:50:36;23.00;55.10
2441;DHT22;1231;53.988;9.470;2022-07-06T12:53:24;23.10;55.10
2441;DHT22;1231;53.988;9.470;2022-07-06T12:56:11;23.30;54.70
2441;DHT22;1231;53.988;9.470;2022-07-06T12:58:56;23.50;54.00
2441;DHT22;1231;53.988;9.470;2022-07-06T13:01:27;23.70;53.60
2441;DHT22;1231;53.988;9.470;2022-07-06T13:03:58;23.70;52.40
2441;DHT22;1231;53.988;9.470;2022-07-06T13:06:35;23.70;52.90
2441;DHT22;1231;53.988;9.470;2022-07-06T13:09:07;23.70;53.20
2441;DHT22;1231;53.988;9.470;2022-07-06T13:11:38;23.60;52.60
2441;DHT22;1231;53.988;9.470;2022-07-06T13:14:08;23.60;52.70
2441;DHT22;1231;53.988;9.470;2022-07-06T13:16:39;23.70;52.70
2441;DHT22;1231;53.988;9.470;2022-07-06T13:19:11;23.70;52.60
2441;DHT22;1231;53.988;9.470;2022-07-06T13:21:42;23.70;52.30
2441;DHT22;1231;53.988;9.470;2022-07-06T13:24:14;23.60;51.90
2441;DHT22;1231;53.988;9.470;2022-07-06T13:26:45;23.50;52.10
2441;DHT22;1231;53.988;9.470;2022-07-06T13:29:16;23.30;52.00
2441;DHT22;1231;53.988;9.470;2022-07-06T13:31:47;23.00;51.90
2441;DHT22;1231;53.988;9.470;2022-07-06T13:34:18;22.70;53.10
2441;DHT22;1231;53.988;9.470;2022-07-06T13:36:48;22.70;53.10
2441;DHT22;1231;53.988;9.470;2022-07-06T13:39:19;22.60;53.60
2441;DHT22;1231;53.988;9.470;2022-07-06T13:41:50;22.70;54.50
2441;DHT22;1231;53.988;9.470;2022-07-06T13:44:21;22.80;55.20
2441;DHT22;1231;53.988;9.470;2022-07-06T13:46:51;23.00;54.50
2441;DHT22;1231;53.988;9.470;2022-07-06T13:49:22;23.10;54.40
2441;DHT22;1231;53.988;9.470;2022-07-06T13:51:53;23.00;54.10
2441;DHT22;1231;53.988;9.470;2022-07-06T13:54:25;22.80;54.50
2441;DHT22;1231;53.988;9.470;2022-07-06T13:56:55;22.70;55.20
2441;DHT22;1231;53.988;9.470;2022-07-06T13:59:26;22.60;55.40
2441;DHT22;1231;53.988;9.470;2022-07-06T14:01:57;22.60;56.10
2441;DHT22;1231;53.988;9.470;2022-07-06T14:04:28;22.60;56.10
2441;DHT22;1231;53.988;9.470;2022-07-06T14:06:59;22.60;55.60
2441;DHT22;1231;53.988;9.470;2022-07-06T14:09:29;22.50;55.50
2441;DHT22;1231;53.988;9.470;2022-07-06T14:12:00;22.30;54.60
2441;DHT22;1231;53.988;9.470;2022-07-06T14:14:31;22.10;55.30
2441;DHT22;1231;53.988;9.470;2022-07-06T14:17:01;22.00;56.00
2441;DHT22;1231;53.988;9.470;2022-07-06T14:19:32;22.10;56.40
2441;DHT22;1231;53.988;9.470;2022-07-06T14:22:03;22.10;56.50
2441;DHT22;1231;53.988;9.470;2022-07-06T14:24:33;22.00;56.30
2441;DHT22;1231;53.988;9.470;2022-07-06T14:27:05;22.00;55.90
2441;DHT22;1231;53.988;9.470;2022-07-06T14:29:35;22.00;56.30
2441;DHT22;1231;53.988;9.470;2022-07-06T14:32:06;22.10;56.10
2441;DHT22;1231;53.988;9.470;2022-07-06T14:34:37;22.20;55.90
2441;DHT22;1231;53.988;9.470;2022-07-06T14:37:07;22.20;56.00
2441;DHT22;1231;53.988;9.470;2022-07-06T14:39:38;22.30;56.80
2441;DHT22;1231;53.988;9.470;2022-07-06T14:42:09;22.20;55.80
2441;DHT22;1231;53.988;9.470;2022-07-06T14:44:40;22.10;55.40
2441;DHT22;1231;53.988;9.470;2022-07-06T14:47:10;21.80;54.50
2441;DHT22;1231;53.988;9.470;2022-07-06T14:49:41;21.60;55.10
2441;DHT22;1231;53.988;9.470;2022-07-06T14:52:11;21.50;56.30
2441;DHT22;1231;53.988;9.470;2022-07-06T14:54:42;21.50;56.00
2441;DHT22;1231;53.988;9.470;2022-07-06T14:57:12;21.40;56.20
2441;DHT22;1231;53.988;9.470;2022-07-06T14:59:43;21.40;56.00
2441;DHT22;1231;53.988;9.470;2022-07-06T15:02:15;21.40;56.10
2441;DHT22;1231;53.988;9.470;2022-07-06T15:04:45;21.40;55.90
2441;DHT22;1231;53.988;9.470;2022-07-06T15:07:16;21.60;55.60
2441;DHT22;1231;53.988;9.470;2022-07-06T15:09:47;21.80;56.30
2441;DHT22;1231;53.988;9.470;2022-07-06T15:12:18;22.20;55.80
2441;DHT22;1231;53.988;9.470;2022-07-06T15:14:48;22.50;55.80
2441;DHT22;1231;53.988;9.470;2022-07-06T15:17:19;22.60;54.00
2441;DHT22;1231;53.988;9.470;2022-07-06T15:19:49;22.70;54.20
2441;DHT22;1231;53.988;9.470;2022-07-06T15:22:20;22.60;54.40
2441;DHT22;1231;53.988;9.470;2022-07-06T15:24:52;22.50;54.60
2441;DHT22;1231;53.988;9.470;2022-07-06T15:27:22;22.40;54.50
2441;DHT22;1231;53.988;9.470;2022-07-06T15:29:53;22.30;54.70
2441;DHT22;1231;53.988;9.470;2022-07-06T15:32:24;22.20;55.70
2441;DHT22;1231;53.988;9.470;2022-07-06T15:34:54;22.20;55.80
2441;DHT22;1231;53.988;9.470;2022-07-06T15:37:25;22.10;56.30
2441;DHT22;1231;53.988;9.470;2022-07-06T15:39:55;22.00;56.40
2441;DHT22;1231;53.988;9.470;2022-07-06T15:42:26;21.90;57.50
2441;DHT22;1231;53.988;9.470;2022-07-06T15:44:57;21.80;58.20
2441;DHT22;1231;53.988;9.470;2022-07-06T15:47:28;21.80;59.00
2441;DHT22;1231;53.988;9.470;2022-07-06T15:49:58;21.90;59.40
2441;DHT22;1231;53.988;9.470;2022-07-06T15:52:29;21.80;59.60
2441;DHT22;1231;53.988;9.470;2022-07-06T15:54:59;21.80;59.60
2441;DHT22;1231;53.988;9.470;2022-07-06T15:57:30;21.70;60.20
2441;DHT22;1231;53.988;9.470;2022-07-06T16:00:01;21.70;60.70
2441;DHT22;1231;53.988;9.470;2022-07-06T16:02:31;21.70;60.90
2441;DHT22;1231;53.988;9.470;2022-07-06T16:05:02;21.60;60.90
2441;DHT22;1231;53.988;9.470;2022-07-06T16:07:33;21.60;61.30
2441;DHT22;1231;53.988;9.470;2022-07-06T16:10:04;21.50;61.20
2441;DHT22;1231;53.988;9.470;2022-07-06T16:12:35;21.40;61.80
2441;DHT22;1231;53.988;9.470;2022-07-06T16:15:06;21.30;62.20
2441;DHT22;1231;53.988;9.470;2022-07-06T16:17:37;21.30;62.10
2441;DHT22;1231;53.988;9.470;2022-07-06T16:20:08;21.20;62.10
2441;DHT22;1231;53.988;9.470;2022-07-06T16:22:39;21.10;62.70
2441;DHT22;1231;53.988;9.470;2022-07-06T16:25:10;21.10;62.60
2441;DHT22;1231;53.988;9.470;2022-07-06T16:27:41;21.10;62.50
2441;DHT22;1231;53.988;9.470;2022-07-06T16:30:12;21.10;62.70